Alto, Michigan
Current Conditions -  °F | °C
As of 4:53 AM on Thursday 18 Dec 2014 (Local Time) from KGRR Reporting Station
Overcast Overcast  
Wind Chill: 23°   Ceiling: 1700
Heat Index: 30°   Visibility: 10mi
Dew Point: 24°   Wind: 7mph
Humidity: 79%   Direction: 290°WNW
Pressure: 30.2"   Gusts: NA
Location:  42.86°N, 85.38°W
Report Text: KGRR 180953Z AUTO 29006KT 10SM BKN017 OVC023 M01/M04 A3020 RMK AO2 SLP236 T10111044
Loading
Personal Weather Stations






























Interactive Weather Map New forecast layout! Learn more

10-Day Weather Forecast

Advertisements
Track Severe Weather on mobile